COMO2: Grand River, Commerce, OK

Data processed at Sat Dec 09 2017 23:36


All information presented herein is the property of the government of the United States of America and may be revised or deleted at any time without prior notice.
Dissemination of this information without the expressed written consent of the Public Affairs Office, Tulsa District U.S. Army Corps of Engineers is strictly prohibited.
These data are gathered electronically and, as presented, have not undergone any form of quality control. These data are not guaranteed to be valid or correct.
Go to home page.
Go to station list.

Upstream stations:

Downstream station:
Previous Day
Next Day
Current Day
    
SHEF ID:       COMO2     Neosho River nr Commerce, OK
STATION TYPE:  

               PRECIP     STAGE  STAGE(2)  RIV-FLOW  BAT-LOAD
                   in        ft        ft       cfs      volt
              Ccp-Rev   Ccp-Rev   Ccp-Rev   Ccp-Rev   Ccp-Rev
(US/Central)
12/07 00:00      0.00      2.38      2.34       129     12.65
12/07 01:00      0.00      2.37      2.34       125     12.57
12/07 02:00      0.00      2.37      2.34       125     12.57
12/07 03:00      0.00      2.38      2.35       129     12.57
12/07 04:00      0.00      2.38      2.34       129     12.49
12/07 05:00      0.00      2.38      2.33       129     12.49
12/07 06:00      0.00      2.37      2.33       125     12.49
12/07 07:00      0.00      2.37      2.33       125     12.49
12/07 08:00      0.00      2.37      2.33       125     12.49
12/07 09:00      0.00      2.37      2.33       125     13.68
12/07 10:00      0.00      2.36      2.33       121     13.53
12/07 11:00      0.00      2.35      2.33       116     14.08
12/07 12:00      0.00      2.36      2.33       121     13.68
12/07 13:00      0.00      2.36      2.32       121     13.44
12/07 14:00      0.00      2.34      2.32       112     13.05
12/07 15:00      0.00      2.36      2.31       121     12.97
12/07 16:00      0.00      2.36      2.32       121     12.89
12/07 17:00      0.00      2.36      2.31       121     12.81
12/07 18:00      0.00      2.35      2.30       116     12.73
12/07 19:00      0.00      2.35      2.30       116     12.65
12/07 20:00      0.00      2.35      2.30       116     12.65
12/07 21:00      0.00      2.35      2.29       116     12.65
12/07 22:00      0.00      2.34      2.30       112     12.65
12/07 23:00      0.00      2.34      2.29       112     12.57